sensor_id;sensor_type;location;lat;lon;timestamp;P1;durP1;ratioP1;P2;durP2;ratioP2
36415;SDS011;22447;44.530;18.620;2023-02-28T00:00:08;221.98;;;99.28;;
36415;SDS011;22447;44.530;18.620;2023-02-28T00:02:39;329.30;;;137.68;;
36415;SDS011;22447;44.530;18.620;2023-02-28T00:05:07;288.95;;;124.95;;
36415;SDS011;22447;44.530;18.620;2023-02-28T00:07:35;455.55;;;188.80;;
36415;SDS011;22447;44.530;18.620;2023-02-28T00:10:01;389.08;;;163.90;;
36415;SDS011;22447;44.530;18.620;2023-02-28T00:12:28;430.42;;;184.85;;
36415;SDS011;22447;44.530;18.620;2023-02-28T00:14:54;380.30;;;162.75;;
36415;SDS011;22447;44.530;18.620;2023-02-28T00:17:20;292.10;;;127.20;;
36415;SDS011;22447;44.530;18.620;2023-02-28T00:19:47;204.98;;;90.85;;
36415;SDS011;22447;44.530;18.620;2023-02-28T00:22:14;174.13;;;81.28;;
36415;SDS011;22447;44.530;18.620;2023-02-28T00:24:46;132.48;;;62.75;;
36415;SDS011;22447;44.530;18.620;2023-02-28T00:27:13;124.32;;;63.20;;
36415;SDS011;22447;44.530;18.620;2023-02-28T00:29:39;116.82;;;61.15;;
36415;SDS011;22447;44.530;18.620;2023-02-28T00:32:05;109.00;;;58.78;;
36415;SDS011;22447;44.530;18.620;2023-02-28T00:34:31;133.40;;;67.60;;
36415;SDS011;22447;44.530;18.620;2023-02-28T00:37:06;241.35;;;111.93;;
36415;SDS011;22447;44.530;18.620;2023-02-28T00:39:40;217.75;;;100.13;;
36415;SDS011;22447;44.530;18.620;2023-02-28T00:42:06;196.27;;;90.82;;
36415;SDS011;22447;44.530;18.620;2023-02-28T00:44:33;247.07;;;117.30;;
36415;SDS011;22447;44.530;18.620;2023-02-28T00:46:59;195.00;;;97.35;;
36415;SDS011;22447;44.530;18.620;2023-02-28T00:49:26;153.55;;;76.30;;
36415;SDS011;22447;44.530;18.620;2023-02-28T00:51:53;149.35;;;74.68;;
36415;SDS011;22447;44.530;18.620;2023-02-28T00:54:20;170.82;;;83.13;;
36415;SDS011;22447;44.530;18.620;2023-02-28T00:56:48;145.40;;;73.35;;
36415;SDS011;22447;44.530;18.620;2023-02-28T00:59:14;142.82;;;72.25;;
36415;SDS011;22447;44.530;18.620;2023-02-28T01:01:44;216.27;;;96.72;;
36415;SDS011;22447;44.530;18.620;2023-02-28T01:04:10;163.73;;;76.70;;
36415;SDS011;22447;44.530;18.620;2023-02-28T01:06:36;203.20;;;90.35;;
36415;SDS011;22447;44.530;18.620;2023-02-28T01:09:03;178.07;;;82.78;;
36415;SDS011;22447;44.530;18.620;2023-02-28T01:11:30;189.00;;;87.82;;
36415;SDS011;22447;44.530;18.620;2023-02-28T01:13:56;206.70;;;94.82;;
36415;SDS011;22447;44.530;18.620;2023-02-28T01:16:23;240.82;;;107.70;;
36415;SDS011;22447;44.530;18.620;2023-02-28T01:18:49;131.68;;;62.50;;
36415;SDS011;22447;44.530;18.620;2023-02-28T01:21:17;116.65;;;56.38;;
36415;SDS011;22447;44.530;18.620;2023-02-28T01:23:44;158.18;;;73.97;;
36415;SDS011;22447;44.530;18.620;2023-02-28T01:26:14;128.38;;;62.30;;
36415;SDS011;22447;44.530;18.620;2023-02-28T01:28:41;144.73;;;67.05;;
36415;SDS011;22447;44.530;18.620;2023-02-28T01:31:08;124.03;;;61.30;;
36415;SDS011;22447;44.530;18.620;2023-02-28T01:33:36;140.93;;;67.43;;
36415;SDS011;22447;44.530;18.620;2023-02-28T01:36:03;124.82;;;61.70;;
36415;SDS011;22447;44.530;18.620;2023-02-28T01:38:31;143.75;;;68.75;;
36415;SDS011;22447;44.530;18.620;2023-02-28T01:40:57;155.52;;;70.53;;
36415;SDS011;22447;44.530;18.620;2023-02-28T01:46:23;118.07;;;59.22;;
36415;SDS011;22447;44.530;18.620;2023-02-28T01:49:01;145.40;;;71.03;;
36415;SDS011;22447;44.530;18.620;2023-02-28T01:51:44;145.25;;;65.32;;
36415;SDS011;22447;44.530;18.620;2023-02-28T01:54:16;128.82;;;62.63;;
36415;SDS011;22447;44.530;18.620;2023-02-28T01:56:49;117.07;;;57.55;;
36415;SDS011;22447;44.530;18.620;2023-02-28T01:59:42;145.50;;;66.40;;
36415;SDS011;22447;44.530;18.620;2023-02-28T02:02:12;121.00;;;59.63;;
36415;SDS011;22447;44.530;18.620;2023-02-28T02:04:41;116.15;;;59.00;;
36415;SDS011;22447;44.530;18.620;2023-02-28T02:07:17;156.68;;;70.25;;
36415;SDS011;22447;44.530;18.620;2023-02-28T02:09:44;119.75;;;60.22;;
36415;SDS011;22447;44.530;18.620;2023-02-28T02:12:25;112.38;;;57.17;;
36415;SDS011;22447;44.530;18.620;2023-02-28T02:15:23;105.53;;;55.10;;
36415;SDS011;22447;44.530;18.620;2023-02-28T02:18:03;104.90;;;53.35;;
36415;SDS011;22447;44.530;18.620;2023-02-28T02:32:44;114.85;;;56.75;;
36415;SDS011;22447;44.530;18.620;2023-02-28T02:35:15;131.00;;;60.75;;
36415;SDS011;22447;44.530;18.620;2023-02-28T02:37:52;130.85;;;63.25;;
36415;SDS011;22447;44.530;18.620;2023-02-28T02:40:43;137.30;;;64.82;;
36415;SDS011;22447;44.530;18.620;2023-02-28T02:43:29;202.15;;;85.90;;
36415;SDS011;22447;44.530;18.620;2023-02-28T02:46:05;203.90;;;84.32;;
36415;SDS011;22447;44.530;18.620;2023-02-28T02:48:35;182.38;;;79.63;;
36415;SDS011;22447;44.530;18.620;2023-02-28T02:51:04;210.15;;;86.32;;
36415;SDS011;22447;44.530;18.620;2023-02-28T02:54:22;227.45;;;84.47;;
36415;SDS011;22447;44.530;18.620;2023-02-28T02:56:39;212.50;;;82.72;;
36415;SDS011;22447;44.530;18.620;2023-02-28T02:59:07;213.45;;;79.82;;
36415;SDS011;22447;44.530;18.620;2023-02-28T03:01:36;202.82;;;76.25;;
36415;SDS011;22447;44.530;18.620;2023-02-28T03:04:14;173.00;;;70.05;;
36415;SDS011;22447;44.530;18.620;2023-02-28T03:06:43;118.65;;;45.33;;
36415;SDS011;22447;44.530;18.620;2023-02-28T03:09:09;92.68;;;38.72;;
36415;SDS011;22447;44.530;18.620;2023-02-28T03:11:38;66.18;;;29.15;;
36415;SDS011;22447;44.530;18.620;2023-02-28T03:14:17;62.25;;;27.90;;
36415;SDS011;22447;44.530;18.620;2023-02-28T03:19:26;24.45;;;15.90;;
36415;SDS011;22447;44.530;18.620;2023-02-28T03:21:58;22.58;;;14.82;;
36415;SDS011;22447;44.530;18.620;2023-02-28T03:24:54;19.65;;;13.40;;
36415;SDS011;22447;44.530;18.620;2023-02-28T03:28:35;20.17;;;13.05;;
36415;SDS011;22447;44.530;18.620;2023-02-28T03:35:57;13.48;;;9.60;;
36415;SDS011;22447;44.530;18.620;2023-02-28T03:38:31;12.57;;;8.85;;
36415;SDS011;22447;44.530;18.620;2023-02-28T03:43:50;13.02;;;8.65;;
36415;SDS011;22447;44.530;18.620;2023-02-28T03:46:31;12.20;;;8.73;;
36415;SDS011;22447;44.530;18.620;2023-02-28T03:49:03;16.77;;;9.23;;
36415;SDS011;22447;44.530;18.620;2023-02-28T03:51:36;11.40;;;7.82;;
36415;SDS011;22447;44.530;18.620;2023-02-28T03:54:06;9.65;;;7.18;;
36415;SDS011;22447;44.530;18.620;2023-02-28T03:56:38;11.32;;;8.15;;
36415;SDS011;22447;44.530;18.620;2023-02-28T03:59:33;13.40;;;8.77;;
36415;SDS011;22447;44.530;18.620;2023-02-28T04:02:01;14.43;;;9.30;;
36415;SDS011;22447;44.530;18.620;2023-02-28T04:04:27;15.77;;;9.52;;
36415;SDS011;22447;44.530;18.620;2023-02-28T04:07:00;18.58;;;9.82;;
36415;SDS011;22447;44.530;18.620;2023-02-28T04:09:33;17.35;;;10.38;;
36415;SDS011;22447;44.530;18.620;2023-02-28T04:11:59;17.83;;;10.98;;
36415;SDS011;22447;44.530;18.620;2023-02-28T04:14:26;15.23;;;9.70;;
36415;SDS011;22447;44.530;18.620;2023-02-28T04:16:52;14.88;;;9.32;;
36415;SDS011;22447;44.530;18.620;2023-02-28T04:19:18;12.88;;;9.10;;
36415;SDS011;22447;44.530;18.620;2023-02-28T04:21:46;16.30;;;9.98;;
36415;SDS011;22447;44.530;18.620;2023-02-28T04:24:14;15.38;;;9.95;;
36415;SDS011;22447;44.530;18.620;2023-02-28T04:26:48;15.48;;;9.98;;
36415;SDS011;22447;44.530;18.620;2023-02-28T04:29:20;13.15;;;9.30;;
36415;SDS011;22447;44.530;18.620;2023-02-28T04:31:54;15.50;;;9.70;;
36415;SDS011;22447;44.530;18.620;2023-02-28T04:34:23;14.70;;;9.90;;
36415;SDS011;22447;44.530;18.620;2023-02-28T04:36:49;13.88;;;9.23;;
36415;SDS011;22447;44.530;18.620;2023-02-28T04:39:16;24.48;;;13.20;;
36415;SDS011;22447;44.530;18.620;2023-02-28T04:41:44;16.25;;;10.40;;
36415;SDS011;22447;44.530;18.620;2023-02-28T04:44:10;23.02;;;13.15;;
36415;SDS011;22447;44.530;18.620;2023-02-28T04:46:36;30.90;;;15.85;;
36415;SDS011;22447;44.530;18.620;2023-02-28T04:49:02;28.23;;;14.82;;
36415;SDS011;22447;44.530;18.620;2023-02-28T04:51:28;35.72;;;17.42;;
36415;SDS011;22447;44.530;18.620;2023-02-28T04:53:55;49.67;;;19.95;;
36415;SDS011;22447;44.530;18.620;2023-02-28T04:56:22;61.60;;;24.48;;
36415;SDS011;22447;44.530;18.620;2023-02-28T04:58:48;39.05;;;18.98;;
36415;SDS011;22447;44.530;18.620;2023-02-28T05:01:24;24.10;;;15.38;;
36415;SDS011;22447;44.530;18.620;2023-02-28T05:03:53;29.75;;;17.90;;
36415;SDS011;22447;44.530;18.620;2023-02-28T05:06:21;26.88;;;17.40;;
36415;SDS011;22447;44.530;18.620;2023-02-28T05:08:48;23.70;;;15.68;;
36415;SDS011;22447;44.530;18.620;2023-02-28T05:11:19;25.67;;;16.20;;
36415;SDS011;22447;44.530;18.620;2023-02-28T05:13:51;25.25;;;16.25;;
36415;SDS011;22447;44.530;18.620;2023-02-28T05:16:18;30.58;;;21.40;;
36415;SDS011;22447;44.530;18.620;2023-02-28T05:18:44;35.03;;;23.50;;
36415;SDS011;22447;44.530;18.620;2023-02-28T05:21:24;31.98;;;20.65;;
36415;SDS011;22447;44.530;18.620;2023-02-28T05:23:55;34.22;;;22.45;;
36415;SDS011;22447;44.530;18.620;2023-02-28T05:26:23;38.67;;;24.13;;
36415;SDS011;22447;44.530;18.620;2023-02-28T05:28:50;37.60;;;22.10;;
36415;SDS011;22447;44.530;18.620;2023-02-28T05:31:16;34.17;;;21.30;;
36415;SDS011;22447;44.530;18.620;2023-02-28T05:33:42;34.72;;;21.35;;
36415;SDS011;22447;44.530;18.620;2023-02-28T05:36:08;39.08;;;23.70;;
36415;SDS011;22447;44.530;18.620;2023-02-28T05:38:34;47.47;;;26.70;;
36415;SDS011;22447;44.530;18.620;2023-02-28T05:41:04;42.92;;;26.02;;
36415;SDS011;22447;44.530;18.620;2023-02-28T05:43:31;55.03;;;28.33;;
36415;SDS011;22447;44.530;18.620;2023-02-28T05:45:56;59.17;;;34.00;;
36415;SDS011;22447;44.530;18.620;2023-02-28T05:48:22;55.78;;;33.53;;
36415;SDS011;22447;44.530;18.620;2023-02-28T05:50:48;50.05;;;28.73;;
36415;SDS011;22447;44.530;18.620;2023-02-28T05:53:14;46.22;;;27.52;;
36415;SDS011;22447;44.530;18.620;2023-02-28T05:55:40;46.60;;;28.27;;
36415;SDS011;22447;44.530;18.620;2023-02-28T05:58:06;50.25;;;29.45;;
36415;SDS011;22447;44.530;18.620;2023-02-28T06:00:32;86.15;;;41.55;;
36415;SDS011;22447;44.530;18.620;2023-02-28T06:02:58;73.15;;;38.58;;
36415;SDS011;22447;44.530;18.620;2023-02-28T06:05:26;81.78;;;44.25;;
36415;SDS011;22447;44.530;18.620;2023-02-28T06:07:53;110.38;;;53.45;;
36415;SDS011;22447;44.530;18.620;2023-02-28T06:10:19;87.57;;;47.03;;
36415;SDS011;22447;44.530;18.620;2023-02-28T06:12:45;103.82;;;49.88;;
36415;SDS011;22447;44.530;18.620;2023-02-28T06:15:14;121.97;;;52.65;;
36415;SDS011;22447;44.530;18.620;2023-02-28T06:17:41;138.15;;;56.92;;
36415;SDS011;22447;44.530;18.620;2023-02-28T06:20:08;221.98;;;89.53;;
36415;SDS011;22447;44.530;18.620;2023-02-28T06:22:39;216.30;;;86.53;;
36415;SDS011;22447;44.530;18.620;2023-02-28T06:25:06;149.63;;;63.97;;
36415;SDS011;22447;44.530;18.620;2023-02-28T06:27:33;260.13;;;99.70;;
36415;SDS011;22447;44.530;18.620;2023-02-28T06:29:59;545.90;;;207.50;;
36415;SDS011;22447;44.530;18.620;2023-02-28T06:32:25;387.00;;;144.43;;
36415;SDS011;22447;44.530;18.620;2023-02-28T06:34:51;442.50;;;157.82;;
36415;SDS011;22447;44.530;18.620;2023-02-28T06:37:18;512.00;;;195.07;;
36415;SDS011;22447;44.530;18.620;2023-02-28T06:39:44;471.88;;;190.15;;
36415;SDS011;22447;44.530;18.620;2023-02-28T06:42:10;189.75;;;84.22;;
36415;SDS011;22447;44.530;18.620;2023-02-28T06:44:36;209.88;;;98.93;;
36415;SDS011;22447;44.530;18.620;2023-02-28T06:47:04;129.73;;;67.43;;
36415;SDS011;22447;44.530;18.620;2023-02-28T06:49:32;96.22;;;53.80;;
36415;SDS011;22447;44.530;18.620;2023-02-28T06:51:59;77.05;;;46.55;;
36415;SDS011;22447;44.530;18.620;2023-02-28T06:54:25;70.28;;;43.17;;
36415;SDS011;22447;44.530;18.620;2023-02-28T06:56:51;79.45;;;42.88;;
36415;SDS011;22447;44.530;18.620;2023-02-28T06:59:18;90.70;;;45.10;;
36415;SDS011;22447;44.530;18.620;2023-02-28T07:01:45;73.32;;;42.28;;
36415;SDS011;22447;44.530;18.620;2023-02-28T07:04:11;70.65;;;41.70;;
36415;SDS011;22447;44.530;18.620;2023-02-28T07:06:38;85.90;;;48.95;;
36415;SDS011;22447;44.530;18.620;2023-02-28T07:09:04;82.70;;;45.92;;
36415;SDS011;22447;44.530;18.620;2023-02-28T07:11:30;87.60;;;47.78;;
36415;SDS011;22447;44.530;18.620;2023-02-28T07:13:56;83.95;;;48.03;;
36415;SDS011;22447;44.530;18.620;2023-02-28T07:16:23;107.47;;;60.10;;
36415;SDS011;22447;44.530;18.620;2023-02-28T07:18:52;100.85;;;56.38;;
36415;SDS011;22447;44.530;18.620;2023-02-28T07:21:21;104.13;;;55.97;;
36415;SDS011;22447;44.530;18.620;2023-02-28T07:23:48;91.63;;;51.65;;
36415;SDS011;22447;44.530;18.620;2023-02-28T07:26:15;98.78;;;52.92;;
36415;SDS011;22447;44.530;18.620;2023-02-28T07:28:43;77.22;;;45.00;;
36415;SDS011;22447;44.530;18.620;2023-02-28T07:31:13;69.38;;;39.17;;
36415;SDS011;22447;44.530;18.620;2023-02-28T07:33:39;70.65;;;40.75;;
36415;SDS011;22447;44.530;18.620;2023-02-28T07:36:07;84.18;;;47.38;;
36415;SDS011;22447;44.530;18.620;2023-02-28T07:38:43;81.78;;;49.08;;
36415;SDS011;22447;44.530;18.620;2023-02-28T07:41:20;67.20;;;40.28;;
36415;SDS011;22447;44.530;18.620;2023-02-28T07:43:49;63.80;;;36.35;;
36415;SDS011;22447;44.530;18.620;2023-02-28T07:46:18;50.80;;;30.42;;
36415;SDS011;22447;44.530;18.620;2023-02-28T07:48:52;51.67;;;30.35;;
36415;SDS011;22447;44.530;18.620;2023-02-28T07:51:25;51.85;;;30.70;;
36415;SDS011;22447;44.530;18.620;2023-02-28T07:53:51;59.45;;;31.42;;
36415;SDS011;22447;44.530;18.620;2023-02-28T07:56:16;53.42;;;32.35;;
36415;SDS011;22447;44.530;18.620;2023-02-28T07:58:43;61.05;;;35.30;;
36415;SDS011;22447;44.530;18.620;2023-02-28T08:01:09;52.85;;;32.10;;
36415;SDS011;22447;44.530;18.620;2023-02-28T08:03:36;49.35;;;30.40;;
36415;SDS011;22447;44.530;18.620;2023-02-28T08:06:04;46.47;;;27.42;;
36415;SDS011;22447;44.530;18.620;2023-02-28T08:08:30;53.10;;;29.88;;
36415;SDS011;22447;44.530;18.620;2023-02-28T08:11:03;53.80;;;29.50;;
36415;SDS011;22447;44.530;18.620;2023-02-28T08:13:29;47.92;;;29.13;;
36415;SDS011;22447;44.530;18.620;2023-02-28T08:15:55;52.33;;;31.48;;
36415;SDS011;22447;44.530;18.620;2023-02-28T08:18:22;52.20;;;29.10;;
36415;SDS011;22447;44.530;18.620;2023-02-28T08:20:48;53.85;;;29.00;;
36415;SDS011;22447;44.530;18.620;2023-02-28T08:23:14;55.17;;;30.50;;
36415;SDS011;22447;44.530;18.620;2023-02-28T08:25:40;47.60;;;28.10;;
36415;SDS011;22447;44.530;18.620;2023-02-28T08:28:06;52.10;;;28.65;;
36415;SDS011;22447;44.530;18.620;2023-02-28T08:30:32;46.17;;;25.45;;
36415;SDS011;22447;44.530;18.620;2023-02-28T08:32:58;37.72;;;23.27;;
36415;SDS011;22447;44.530;18.620;2023-02-28T08:35:24;56.67;;;29.85;;
36415;SDS011;22447;44.530;18.620;2023-02-28T08:37:51;50.22;;;27.60;;
36415;SDS011;22447;44.530;18.620;2023-02-28T08:40:17;52.72;;;30.15;;
36415;SDS011;22447;44.530;18.620;2023-02-28T08:42:44;50.45;;;29.50;;
36415;SDS011;22447;44.530;18.620;2023-02-28T08:45:11;41.75;;;24.65;;
36415;SDS011;22447;44.530;18.620;2023-02-28T08:47:37;36.00;;;22.83;;
36415;SDS011;22447;44.530;18.620;2023-02-28T08:50:06;38.85;;;22.52;;
36415;SDS011;22447;44.530;18.620;2023-02-28T08:52:33;33.40;;;21.30;;
36415;SDS011;22447;44.530;18.620;2023-02-28T08:54:59;27.27;;;18.00;;
36415;SDS011;22447;44.530;18.620;2023-02-28T08:57:28;32.47;;;19.35;;
36415;SDS011;22447;44.530;18.620;2023-02-28T08:59:54;63.30;;;32.38;;
36415;SDS011;22447;44.530;18.620;2023-02-28T09:02:20;74.60;;;41.42;;
36415;SDS011;22447;44.530;18.620;2023-02-28T09:04:45;70.85;;;42.35;;
36415;SDS011;22447;44.530;18.620;2023-02-28T09:07:11;72.43;;;42.92;;
36415;SDS011;22447;44.530;18.620;2023-02-28T09:09:38;91.53;;;52.33;;
36415;SDS011;22447;44.530;18.620;2023-02-28T09:12:19;93.38;;;53.35;;
36415;SDS011;22447;44.530;18.620;2023-02-28T09:14:48;90.63;;;51.92;;
36415;SDS011;22447;44.530;18.620;2023-02-28T09:17:14;91.70;;;50.92;;
36415;SDS011;22447;44.530;18.620;2023-02-28T09:19:40;80.53;;;45.78;;
36415;SDS011;22447;44.530;18.620;2023-02-28T09:22:06;87.05;;;48.33;;
36415;SDS011;22447;44.530;18.620;2023-02-28T09:24:32;90.68;;;50.83;;
36415;SDS011;22447;44.530;18.620;2023-02-28T09:26:58;74.95;;;44.13;;
36415;SDS011;22447;44.530;18.620;2023-02-28T09:29:24;68.53;;;42.35;;
36415;SDS011;22447;44.530;18.620;2023-02-28T09:31:50;81.20;;;46.63;;
36415;SDS011;22447;44.530;18.620;2023-02-28T09:34:16;71.13;;;42.90;;
36415;SDS011;22447;44.530;18.620;2023-02-28T09:36:42;78.20;;;45.22;;
36415;SDS011;22447;44.530;18.620;2023-02-28T09:39:09;75.82;;;44.92;;
36415;SDS011;22447;44.530;18.620;2023-02-28T09:41:41;79.93;;;42.97;;
36415;SDS011;22447;44.530;18.620;2023-02-28T09:47:30;73.55;;;43.55;;
36415;SDS011;22447;44.530;18.620;2023-02-28T09:50:08;70.05;;;42.17;;
36415;SDS011;22447;44.530;18.620;2023-02-28T09:52:51;68.85;;;39.92;;
36415;SDS011;22447;44.530;18.620;2023-02-28T09:55:20;71.45;;;44.13;;
36415;SDS011;22447;44.530;18.620;2023-02-28T09:57:51;76.57;;;43.85;;
36415;SDS011;22447;44.530;18.620;2023-02-28T10:00:36;65.78;;;40.42;;
36415;SDS011;22447;44.530;18.620;2023-02-28T10:05:47;67.78;;;38.38;;
36415;SDS011;22447;44.530;18.620;2023-02-28T10:08:17;62.58;;;37.88;;
36415;SDS011;22447;44.530;18.620;2023-02-28T10:10:56;61.95;;;37.60;;
36415;SDS011;22447;44.530;18.620;2023-02-28T10:16:02;71.13;;;41.17;;
36415;SDS011;22447;44.530;18.620;2023-02-28T10:18:38;71.40;;;43.10;;
36415;SDS011;22447;44.530;18.620;2023-02-28T10:23:46;69.30;;;38.92;;
36415;SDS011;22447;44.530;18.620;2023-02-28T10:26:15;61.72;;;38.25;;
36415;SDS011;22447;44.530;18.620;2023-02-28T10:28:42;69.95;;;39.38;;
36415;SDS011;22447;44.530;18.620;2023-02-28T10:31:11;67.13;;;39.40;;
36415;SDS011;22447;44.530;18.620;2023-02-28T10:33:44;64.50;;;37.58;;
36415;SDS011;22447;44.530;18.620;2023-02-28T10:36:15;60.58;;;37.80;;
36415;SDS011;22447;44.530;18.620;2023-02-28T10:38:43;68.53;;;39.45;;
36415;SDS011;22447;44.530;18.620;2023-02-28T10:41:12;67.25;;;38.88;;
36415;SDS011;22447;44.530;18.620;2023-02-28T10:43:40;66.60;;;39.05;;
36415;SDS011;22447;44.530;18.620;2023-02-28T10:48:37;68.38;;;40.13;;
36415;SDS011;22447;44.530;18.620;2023-02-28T10:51:10;64.45;;;39.45;;
36415;SDS011;22447;44.530;18.620;2023-02-28T10:53:49;75.32;;;42.10;;
36415;SDS011;22447;44.530;18.620;2023-02-28T10:56:20;64.78;;;39.78;;
36415;SDS011;22447;44.530;18.620;2023-02-28T11:01:33;63.03;;;38.90;;
36415;SDS011;22447;44.530;18.620;2023-02-28T11:07:02;72.88;;;42.17;;
36415;SDS011;22447;44.530;18.620;2023-02-28T11:09:48;69.25;;;41.28;;
36415;SDS011;22447;44.530;18.620;2023-02-28T11:15:38;58.63;;;37.75;;
36415;SDS011;22447;44.530;18.620;2023-02-28T11:17:59;63.22;;;39.35;;
36415;SDS011;22447;44.530;18.620;2023-02-28T11:20:30;67.85;;;41.05;;
36415;SDS011;22447;44.530;18.620;2023-02-28T11:23:03;75.32;;;39.53;;
36415;SDS011;22447;44.530;18.620;2023-02-28T11:27:58;68.50;;;39.28;;
36415;SDS011;22447;44.530;18.620;2023-02-28T11:30:37;68.88;;;41.03;;
36415;SDS011;22447;44.530;18.620;2023-02-28T11:36:25;66.50;;;40.83;;
36415;SDS011;22447;44.530;18.620;2023-02-28T11:38:54;65.55;;;41.75;;
36415;SDS011;22447;44.530;18.620;2023-02-28T11:47:29;74.68;;;42.92;;
36415;SDS011;22447;44.530;18.620;2023-02-28T11:52:56;56.15;;;35.33;;
36415;SDS011;22447;44.530;18.620;2023-02-28T11:55:27;58.83;;;36.85;;
36415;SDS011;22447;44.530;18.620;2023-02-28T12:27:25;43.00;;;25.48;;
36415;SDS011;22447;44.530;18.620;2023-02-28T12:32:42;39.60;;;24.13;;
36415;SDS011;22447;44.530;18.620;2023-02-28T12:35:13;73.15;;;38.38;;
36415;SDS011;22447;44.530;18.620;2023-02-28T12:37:57;95.97;;;51.70;;
36415;SDS011;22447;44.530;18.620;2023-02-28T12:40:45;132.00;;;67.80;;
36415;SDS011;22447;44.530;18.620;2023-02-28T12:43:22;126.07;;;66.18;;
36415;SDS011;22447;44.530;18.620;2023-02-28T12:46:10;117.53;;;62.55;;
36415;SDS011;22447;44.530;18.620;2023-02-28T12:48:59;113.32;;;61.85;;
36415;SDS011;22447;44.530;18.620;2023-02-28T12:51:32;107.60;;;59.15;;
36415;SDS011;22447;44.530;18.620;2023-02-28T12:54:07;112.55;;;59.95;;
36415;SDS011;22447;44.530;18.620;2023-02-28T12:59:49;108.05;;;57.92;;
36415;SDS011;22447;44.530;18.620;2023-02-28T13:10:48;99.80;;;49.70;;
36415;SDS011;22447;44.530;18.620;2023-02-28T13:13:22;90.00;;;45.00;;
36415;SDS011;22447;44.530;18.620;2023-02-28T13:15:59;73.63;;;43.78;;
36415;SDS011;22447;44.530;18.620;2023-02-28T13:18:44;70.63;;;41.97;;
36415;SDS011;22447;44.530;18.620;2023-02-28T13:21:28;80.13;;;42.78;;
36415;SDS011;22447;44.530;18.620;2023-02-28T13:29:02;59.75;;;33.92;;
36415;SDS011;22447;44.530;18.620;2023-02-28T13:34:37;71.35;;;38.28;;
36415;SDS011;22447;44.530;18.620;2023-02-28T13:39:47;74.15;;;38.53;;
36415;SDS011;22447;44.530;18.620;2023-02-28T13:47:30;70.05;;;38.17;;
36415;SDS011;22447;44.530;18.620;2023-02-28T14:01:22;137.35;;;61.60;;
36415;SDS011;22447;44.530;18.620;2023-02-28T14:06:35;86.75;;;46.38;;
36415;SDS011;22447;44.530;18.620;2023-02-28T14:09:17;71.40;;;34.20;;
36415;SDS011;22447;44.530;18.620;2023-02-28T14:11:48;92.65;;;46.75;;
36415;SDS011;22447;44.530;18.620;2023-02-28T14:17:00;71.68;;;36.55;;
36415;SDS011;22447;44.530;18.620;2023-02-28T14:19:32;47.70;;;27.55;;
36415;SDS011;22447;44.530;18.620;2023-02-28T14:22:07;67.75;;;31.33;;
36415;SDS011;22447;44.530;18.620;2023-02-28T14:31:01;53.53;;;27.90;;
36415;SDS011;22447;44.530;18.620;2023-02-28T14:36:39;48.25;;;26.35;;
36415;SDS011;22447;44.530;18.620;2023-02-28T14:39:07;54.50;;;27.73;;
36415;SDS011;22447;44.530;18.620;2023-02-28T14:41:42;55.22;;;27.75;;
36415;SDS011;22447;44.530;18.620;2023-02-28T14:44:20;57.22;;;28.08;;
36415;SDS011;22447;44.530;18.620;2023-02-28T14:46:57;58.10;;;27.80;;
36415;SDS011;22447;44.530;18.620;2023-02-28T14:49:30;52.42;;;26.27;;
36415;SDS011;22447;44.530;18.620;2023-02-28T14:54:36;58.42;;;28.75;;
36415;SDS011;22447;44.530;18.620;2023-02-28T14:57:03;52.33;;;27.63;;
36415;SDS011;22447;44.530;18.620;2023-02-28T14:59:31;55.75;;;28.73;;
36415;SDS011;22447;44.530;18.620;2023-02-28T15:05:22;47.38;;;24.52;;
36415;SDS011;22447;44.530;18.620;2023-02-28T15:08:03;41.90;;;23.02;;
36415;SDS011;22447;44.530;18.620;2023-02-28T15:10:30;53.30;;;26.83;;
36415;SDS011;22447;44.530;18.620;2023-02-28T15:13:01;58.33;;;28.95;;
36415;SDS011;22447;44.530;18.620;2023-02-28T15:15:52;52.85;;;28.80;;
36415;SDS011;22447;44.530;18.620;2023-02-28T15:18:30;53.75;;;28.90;;
36415;SDS011;22447;44.530;18.620;2023-02-28T15:20:58;158.45;;;77.68;;
36415;SDS011;22447;44.530;18.620;2023-02-28T15:23:27;113.40;;;56.97;;
36415;SDS011;22447;44.530;18.620;2023-02-28T15:25:55;58.20;;;30.65;;
36415;SDS011;22447;44.530;18.620;2023-02-28T15:28:22;79.88;;;34.20;;
36415;SDS011;22447;44.530;18.620;2023-02-28T15:30:57;58.50;;;29.15;;
36415;SDS011;22447;44.530;18.620;2023-02-28T15:33:26;52.85;;;28.48;;
36415;SDS011;22447;44.530;18.620;2023-02-28T15:36:04;54.60;;;26.83;;
36415;SDS011;22447;44.530;18.620;2023-02-28T15:38:36;61.42;;;28.40;;
36415;SDS011;22447;44.530;18.620;2023-02-28T15:41:02;80.45;;;33.85;;
36415;SDS011;22447;44.530;18.620;2023-02-28T15:43:37;79.97;;;38.80;;
36415;SDS011;22447;44.530;18.620;2023-02-28T15:46:05;66.05;;;33.38;;
36415;SDS011;22447;44.530;18.620;2023-02-28T15:48:37;59.80;;;30.60;;
36415;SDS011;22447;44.530;18.620;2023-02-28T15:51:17;57.40;;;29.83;;
36415;SDS011;22447;44.530;18.620;2023-02-28T15:53:47;69.43;;;33.00;;
36415;SDS011;22447;44.530;18.620;2023-02-28T15:56:20;76.78;;;35.78;;
36415;SDS011;22447;44.530;18.620;2023-02-28T15:58:56;83.78;;;39.88;;
36415;SDS011;22447;44.530;18.620;2023-02-28T16:01:28;91.45;;;43.40;;
36415;SDS011;22447;44.530;18.620;2023-02-28T16:03:59;92.88;;;42.20;;
36415;SDS011;22447;44.530;18.620;2023-02-28T16:09:01;87.32;;;38.55;;
36415;SDS011;22447;44.530;18.620;2023-02-28T16:11:28;74.03;;;36.55;;
36415;SDS011;22447;44.530;18.620;2023-02-28T16:13:55;73.07;;;34.80;;
36415;SDS011;22447;44.530;18.620;2023-02-28T16:16:24;71.43;;;35.22;;
36415;SDS011;22447;44.530;18.620;2023-02-28T16:18:51;69.53;;;32.85;;
36415;SDS011;22447;44.530;18.620;2023-02-28T16:21:18;67.70;;;31.50;;
36415;SDS011;22447;44.530;18.620;2023-02-28T16:23:44;69.72;;;31.50;;
36415;SDS011;22447;44.530;18.620;2023-02-28T16:26:16;70.80;;;33.67;;
36415;SDS011;22447;44.530;18.620;2023-02-28T16:28:46;72.20;;;34.90;;
36415;SDS011;22447;44.530;18.620;2023-02-28T16:31:12;72.40;;;34.83;;
36415;SDS011;22447;44.530;18.620;2023-02-28T16:33:42;67.72;;;33.60;;
36415;SDS011;22447;44.530;18.620;2023-02-28T16:36:16;68.55;;;33.28;;
36415;SDS011;22447;44.530;18.620;2023-02-28T16:38:44;69.68;;;33.33;;
36415;SDS011;22447;44.530;18.620;2023-02-28T16:41:20;67.40;;;32.50;;
36415;SDS011;22447;44.530;18.620;2023-02-28T16:43:51;64.10;;;30.48;;
36415;SDS011;22447;44.530;18.620;2023-02-28T16:46:19;62.47;;;29.75;;
36415;SDS011;22447;44.530;18.620;2023-02-28T16:48:46;72.05;;;35.20;;
36415;SDS011;22447;44.530;18.620;2023-02-28T16:51:16;88.00;;;42.40;;
36415;SDS011;22447;44.530;18.620;2023-02-28T16:53:43;85.85;;;37.72;;
36415;SDS011;22447;44.530;18.620;2023-02-28T16:56:20;93.15;;;44.80;;
36415;SDS011;22447;44.530;18.620;2023-02-28T16:58:49;149.43;;;68.50;;
36415;SDS011;22447;44.530;18.620;2023-02-28T17:01:19;116.95;;;55.50;;